.
WxDataArchive / Data Records for 2012-10-09
2012-10-08 October 2012 2012-10-10

Data Records for Tuesday, 09 October 2012

Time	Temp	Chill	HIndex	Humid	Dewpt	 Wind 	HiWind	WindDir	Rain 	Barom 
-----	----	-----	------	-----	-----	------	------	-------	-----	----- 
00:00	37.6	37.6	37.6	73	29.7	0	0	---	0.00	30.132 
00:05	37.3	37.3	37.3	73	29.5	0	0	---	0.00	30.132 
00:10	37.2	37.2	37.2	74	29.7	0	0	---	0.00	30.132 
00:15	37.0	37.0	37.0	74	29.5	0	0	---	0.00	30.127 
00:20	36.9	36.9	36.9	74	29.4	0	0	---	0.00	30.127 
00:25	36.9	36.9	36.9	75	29.7	0	0	---	0.00	30.127 
00:30	36.8	36.8	36.8	76	30.0	0	0	---	0.00	30.128 
00:35	36.6	36.6	36.6	76	29.8	0	0	---	0.00	30.128 
00:40	36.5	36.5	36.5	77	30.0	0	0	---	0.00	30.128 
00:45	36.3	36.3	36.3	77	29.8	0	0	---	0.00	30.126 
00:50	36.0	36.0	36.0	78	29.8	0	0	---	0.00	30.126 
00:55	35.9	35.9	35.9	78	29.7	0	0	---	0.00	30.126 
01:00	35.8	35.8	35.8	78	29.6	0	0	---	0.00	30.127 
01:05	35.6	35.6	35.6	79	29.7	0	0	---	0.00	30.127 
01:10	35.6	35.6	35.6	79	29.7	0	0	---	0.00	30.127 
01:15	35.5	35.5	35.5	79	29.6	0	0	---	0.00	30.125 
01:20	35.3	35.3	35.3	80	29.8	0	0	---	0.00	30.125 
01:25	35.2	35.2	35.2	80	29.7	0	0	---	0.00	30.125 
01:30	35.2	35.2	35.2	80	29.7	0	0	---	0.00	30.124 
01:35	35.0	35.0	35.0	81	29.8	0	0	---	0.00	30.124 
01:40	34.9	34.9	34.9	81	29.7	0	0	---	0.00	30.124 
01:45	34.9	34.9	34.9	81	29.7	0	0	---	0.00	30.123 
01:50	34.7	34.7	34.7	81	29.5	0	0	---	0.00	30.123 
01:55	34.6	34.6	34.6	81	29.4	0	0	---	0.00	30.123 
02:00	34.6	34.6	34.6	82	29.7	0	0	---	0.00	30.125 
02:05	34.7	34.7	34.7	81	29.5	0	0	---	0.00	30.125 
02:10	34.9	34.9	34.9	81	29.7	0	0	---	0.00	30.125 
02:15	35.2	35.2	35.2	81	30.0	0	0	---	0.00	30.122 
02:20	35.5	35.5	35.5	81	30.3	0	0	---	0.00	30.122 
02:25	35.8	35.8	35.8	80	30.2	0	0	---	0.00	30.122 
02:30	36.0	36.0	36.0	80	30.4	0	0	---	0.00	30.124 
02:35	36.3	36.3	36.3	78	30.1	0	0	---	0.00	30.124 
02:40	36.6	36.6	36.6	77	30.1	0	0	---	0.00	30.124 
02:45	36.8	36.8	36.8	77	30.3	0	0	---	0.00	30.116 
02:50	37.0	37.0	37.0	76	30.2	0	0	---	0.00	30.116 
02:55	37.2	37.2	37.2	75	30.0	0	0	---	0.00	30.116 
03:00	37.2	37.2	37.2	75	30.0	0	0	---	0.00	30.112 
03:05	37.2	37.2	37.2	75	30.0	0	0	---	0.00	30.112 
03:10	37.2	37.2	37.2	75	30.0	0	0	---	0.00	30.112 
03:15	37.2	37.2	37.2	75	30.0	0	0	---	0.00	30.108 
03:20	37.2	37.2	37.2	75	30.0	0	0	---	0.00	30.108 
03:25	37.2	37.2	37.2	75	30.0	0	0	---	0.00	30.108 
03:30	37.0	37.0	37.0	75	29.8	0	0	---	0.00	30.102 
03:35	37.0	37.0	37.0	75	29.8	0	0	---	0.00	30.102 
03:40	36.9	36.9	36.9	75	29.7	0	0	---	0.00	30.102 
03:45	36.9	36.9	36.9	75	29.7	0	0	---	0.00	30.095 
03:50	37.0	37.0	37.0	75	29.8	0	0	---	0.00	30.095 
03:55	36.9	36.9	36.9	75	29.7	0	0	---	0.00	30.095 
04:00	36.9	36.9	36.9	75	29.7	0	0	---	0.00	30.095 
04:05	36.9	36.9	36.9	75	29.7	0	0	---	0.00	30.095 
04:10	37.0	37.0	37.0	75	29.8	0	0	---	0.00	30.095 
04:15	37.0	37.0	37.0	75	29.8	0	0	---	0.00	30.097 
04:20	37.0	37.0	37.0	75	29.8	0	0	---	0.00	30.097 
04:25	37.0	37.0	37.0	75	29.8	0	0	---	0.00	30.097 
04:30	37.0	37.0	37.0	75	29.8	0	0	---	0.00	30.094 
04:35	37.0	37.0	37.0	75	29.8	0	0	---	0.00	30.094 
04:40	37.0	37.0	37.0	76	30.2	0	0	---	0.00	30.094 
04:45	37.0	37.0	37.0	75	29.8	0	0	---	0.00	30.095 
04:50	37.0	37.0	37.0	75	29.8	0	0	---	0.00	30.095 
04:55	36.9	36.9	36.9	76	30.1	0	0	---	0.00	30.095 
05:00	36.8	36.8	36.8	75	29.6	0	0	---	0.00	30.095 
05:05	36.8	36.8	36.8	76	30.0	0	0	---	0.00	30.095 
05:10	36.6	36.6	36.6	76	29.8	0	0	---	0.00	30.095 
05:15	36.6	36.6	36.6	76	29.8	0	0	---	0.00	30.096 
05:20	36.5	36.5	36.5	77	30.0	0	0	---	0.00	30.096 
05:25	36.5	36.5	36.5	77	30.0	0	0	---	0.00	30.096 
05:30	36.6	36.6	36.6	77	30.1	0	1	248	0.00	30.096 
05:35	36.6	36.6	36.6	77	30.1	0	0	---	0.00	30.096 
05:40	36.6	36.6	36.6	77	30.1	0	0	---	0.00	30.096 
05:45	36.6	36.6	36.6	77	30.1	0	0	---	0.00	30.095 
05:50	36.8	36.8	36.8	77	30.3	0	0	---	0.00	30.095 
05:55	36.9	36.9	36.9	77	30.4	0	1	248	0.00	30.095 
06:00	36.9	36.9	36.9	77	30.4	0	1	248	0.00	30.095 
06:05	37.0	37.0	37.0	77	30.5	0	0	---	0.00	30.095 
06:10	37.0	37.0	37.0	77	30.5	0	0	---	0.00	30.095 
06:15	37.0	37.0	37.0	77	30.5	0	0	---	0.00	30.099 
06:20	37.0	37.0	37.0	77	30.5	0	0	---	0.00	30.099 
06:25	37.0	37.0	37.0	77	30.5	0	0	---	0.00	30.099 
06:30	37.0	37.0	37.0	77	30.5	0	0	---	0.00	30.103 
06:35	36.9	36.9	36.9	77	30.4	0	0	---	0.00	30.103 
06:40	37.0	37.0	37.0	78	30.8	0	0	---	0.00	30.103 
06:45	36.9	36.9	36.9	78	30.7	0	1	248	0.00	30.101 
06:50	36.9	36.9	36.9	78	30.7	0	1	248	0.00	30.101 
06:55	36.9	36.9	36.9	78	30.7	0	1	248	0.00	30.101 
07:00	36.9	36.9	36.9	79	31.0	0	0	---	0.00	30.098 
07:05	36.8	36.8	36.8	79	30.9	0	0	---	0.00	30.098 
07:10	36.8	36.8	36.8	79	30.9	0	0	---	0.00	30.098 
07:15	36.8	36.8	36.8	80	31.2	0	0	---	0.00	30.103 
07:20	36.8	36.8	36.8	80	31.2	0	0	---	0.00	30.103 
07:25	36.8	36.8	36.8	80	31.2	0	0	---	0.00	30.103 
07:30	36.9	36.9	36.9	81	31.6	0	1	248	0.00	30.104 
07:35	37.0	37.0	37.0	81	31.7	0	0	---	0.00	30.104 
07:40	37.0	37.0	37.0	81	31.7	0	1	248	0.00	30.104 
07:45	37.0	37.0	37.0	81	31.7	0	0	---	0.00	30.101 
07:50	37.0	37.0	37.0	81	31.7	0	0	---	0.00	30.101 
07:55	37.0	37.0	37.0	81	31.7	0	1	248	0.00	30.101 
08:00	37.0	37.0	37.0	81	31.7	0	0	---	0.00	30.100 
08:05	37.0	37.0	37.0	81	31.7	0	0	---	0.00	30.100 
08:10	37.0	37.0	37.0	82	32.0	0	0	---	0.00	30.100 
08:15	37.2	37.2	37.2	82	32.2	0	1	248	0.00	30.102 
08:20	37.3	37.3	37.3	82	32.3	0	0	---	0.00	30.102 
08:25	37.8	37.8	37.8	82	32.8	0	1	270	0.00	30.102 
08:30	38.0	38.0	38.0	82	33.0	0	1	270	0.00	30.104 
08:35	38.5	38.5	38.5	81	33.2	0	1	270	0.00	30.104 
08:40	39.1	39.1	39.1	81	33.8	0	1	270	0.00	30.104 
08:45	39.5	39.5	39.5	80	33.9	0	0	---	0.00	30.105 
08:50	39.9	39.9	39.9	79	33.9	0	1	270	0.00	30.105 
08:55	40.3	40.3	40.3	79	34.3	0	1	270	0.00	30.105 
09:00	40.6	40.6	40.6	78	34.3	0	0	---	0.00	30.103 
09:05	41.1	41.1	41.1	77	34.4	0	1	248	0.00	30.103 
09:10	41.6	41.6	41.6	77	34.9	0	2	315	0.00	30.103 
09:15	41.9	41.9	41.9	75	34.6	0	3	270	0.00	30.104 
09:20	42.5	42.5	42.5	74	34.8	0	2	248	0.00	30.104 
09:25	42.9	42.9	42.9	73	34.9	0	2	248	0.00	30.104 
09:30	43.3	43.3	43.3	72	34.9	0	3	248	0.00	30.102 
09:35	43.8	43.8	43.8	71	35.0	1	4	248	0.00	30.102 
09:40	44.2	44.2	44.2	70	35.0	1	4	248	0.00	30.102 
09:45	44.6	44.6	44.6	69	35.1	1	4	248	0.00	30.099 
09:50	45.2	45.2	45.2	68	35.3	1	6	248	0.00	30.099 
09:55	45.8	45.8	45.8	68	35.8	0	3	270	0.00	30.099 
10:00	46.5	46.5	46.5	67	36.1	0	4	0	0.00	30.099 
10:05	47.1	47.1	47.1	65	35.9	1	4	225	0.00	30.099 
10:10	47.9	47.9	47.9	63	35.9	1	3	225	0.00	30.099 
10:15	48.8	48.8	48.8	62	36.4	0	2	225	0.00	30.092 
10:20	49.5	49.5	49.5	60	36.2	1	3	225	0.00	30.092 
10:25	50.1	50.1	50.1	58	35.9	1	4	248	0.00	30.092 
10:30	50.8	50.8	50.8	59	37.0	0	2	248	0.00	30.083 
10:35	51.6	51.6	51.6	56	36.4	1	3	248	0.00	30.083 
10:40	52.2	52.2	52.2	55	36.5	1	4	248	0.00	30.083 
10:45	52.6	52.6	52.6	56	37.4	0	3	248	0.00	30.082 
10:50	53.3	53.3	53.3	54	37.1	1	4	45	0.00	30.082 
10:55	53.8	53.8	53.8	53	37.1	1	3	270	0.00	30.082 
11:00	54.2	54.2	54.2	52	37.0	1	4	270	0.00	30.078 
11:05	54.5	54.5	54.5	52	37.2	1	5	68	0.00	30.078 
11:10	54.7	54.7	54.7	50	36.4	2	6	248	0.00	30.078 
11:15	54.8	54.8	54.8	50	36.5	2	5	248	0.00	30.077 
11:20	55.1	55.1	55.1	51	37.3	1	5	248	0.00	30.077 
11:25	55.4	55.4	55.4	49	36.6	2	4	270	0.00	30.077 
11:30	55.9	55.9	55.9	50	37.5	1	3	270	0.00	30.074 
11:35	56.2	56.2	56.2	49	37.3	1	5	248	0.00	30.074 
11:40	56.3	56.3	56.3	49	37.4	1	6	270	0.00	30.074 
11:45	56.3	56.3	56.3	49	37.4	2	9	248	0.00	30.067 
11:50	56.5	56.5	56.5	49	37.6	2	9	248	0.00	30.067 
11:55	56.6	56.6	56.6	49	37.7	2	5	248	0.00	30.067 
12:00	56.9	56.9	56.9	50	38.5	1	6	248	0.00	30.059 
12:05	57.3	57.3	57.3	48	37.8	2	4	225	0.00	30.059 
12:10	57.5	57.5	57.5	46	36.9	2	4	270	0.00	30.059 
12:15	57.5	57.5	57.5	46	36.9	2	5	248	0.00	30.053 
12:20	57.6	57.6	57.6	46	37.0	2	6	225	0.00	30.053 
12:25	58.0	58.0	58.0	46	37.3	1	5	248	0.00	30.053 
12:30	58.1	58.1	58.1	45	36.9	2	11	270	0.00	30.051 
12:35	58.3	58.3	58.3	46	37.6	1	3	248	0.00	30.051 
12:40	58.4	58.4	58.4	44	36.6	2	6	248	0.00	30.051 
12:45	58.9	58.9	58.9	47	38.7	1	5	248	0.00	30.045 
12:50	59.2	59.2	59.2	46	38.4	1	4	270	0.00	30.045 
12:55	59.3	59.3	59.3	44	37.4	1	5	248	0.00	30.045 
13:00	59.5	59.5	59.5	44	37.6	2	6	248	0.00	30.037 
13:05	59.6	59.6	59.6	44	37.7	2	4	248	0.00	30.037 
13:10	59.9	59.9	59.9	43	37.3	2	6	248	0.00	30.037 
13:15	59.9	59.9	59.9	42	36.8	2	6	270	0.00	30.028 
13:20	59.9	59.9	59.9	43	37.3	2	5	270	0.00	30.028 
13:25	60.1	60.1	60.1	44	38.1	2	4	270	0.00	30.028 
13:30	60.1	60.1	60.1	42	36.9	2	6	292	0.00	30.022 
13:35	59.9	59.9	59.9	43	37.3	2	7	270	0.00	30.022 
13:40	59.8	59.8	59.8	43	37.3	2	7	248	0.00	30.022 
13:45	60.1	60.1	60.1	39	35.1	2	5	248	0.00	30.011 
13:50	60.2	60.2	60.2	42	37.0	1	3	248	0.00	30.011 
13:55	60.7	60.7	60.7	40	36.2	1	6	292	0.00	30.011 
14:00	61.0	61.0	61.0	39	35.9	2	9	315	0.00	29.995 
14:05	61.2	61.2	61.2	43	38.5	1	6	225	0.00	29.995 
14:10	61.0	61.0	61.0	38	35.2	2	7	248	0.00	29.995 
14:15	60.9	60.9	60.9	39	35.8	2	7	248	0.00	29.992 
14:20	60.5	60.5	60.5	38	34.8	2	9	248	0.00	29.992 
14:25	60.5	60.5	60.5	39	35.4	2	5	270	0.00	29.992 
14:30	60.7	60.7	60.7	39	35.6	1	4	248	0.00	29.987 
14:35	60.7	60.7	60.7	39	35.6	1	4	248	0.00	29.987 
14:40	60.5	60.5	60.5	39	35.4	1	4	270	0.00	29.987 
14:45	60.7	60.7	60.7	38	34.9	2	9	248	0.00	29.977 
14:50	60.7	60.7	60.7	40	36.2	1	4	248	0.00	29.977 
14:55	60.7	60.7	60.7	39	35.6	2	7	248	0.00	29.977 
15:00	60.9	60.9	60.9	41	37.0	1	5	292	0.00	29.974 
15:05	61.0	61.0	61.0	38	35.2	1	4	248	0.00	29.974 
15:10	61.2	61.2	61.2	39	36.0	1	6	90	0.00	29.974 
15:15	61.2	61.2	61.2	39	36.0	2	6	225	0.00	29.972 
15:20	61.3	61.3	61.3	37	34.8	1	5	248	0.00	29.972 
15:25	61.3	61.3	61.3	37	34.8	2	9	270	0.00	29.972 
15:30	61.2	61.2	61.2	36	34.0	2	5	248	0.00	29.962 
15:35	61.0	61.0	61.0	38	35.2	1	3	270	0.00	29.962 
15:40	61.5	61.5	61.5	36	34.3	1	4	248	0.00	29.962 
15:45	61.6	61.6	61.6	36	34.4	2	5	225	0.00	29.957 
15:50	61.8	61.8	61.8	38	35.9	1	4	248	0.00	29.957 
15:55	62.0	62.0	62.0	38	36.1	1	5	248	0.00	29.957 
16:00	62.0	62.0	62.0	37	35.4	2	7	248	0.00	29.950 
16:05	62.0	62.0	62.0	39	36.8	1	3	292	0.00	29.950 
16:10	62.1	62.1	62.1	37	35.5	1	6	248	0.00	29.950 
16:15	61.8	61.8	61.8	36	34.6	1	4	225	0.00	29.946 
16:20	61.6	61.6	61.6	35	33.7	1	6	225	0.00	29.946 
16:25	61.5	61.5	61.5	38	35.7	0	3	292	0.00	29.946 
16:30	61.3	61.3	61.3	36	34.1	1	5	225	0.00	29.941 
16:35	61.3	61.3	61.3	37	34.8	1	3	248	0.00	29.941 
16:40	61.3	61.3	61.3	39	36.1	0	2	248	0.00	29.941 
16:45	61.3	61.3	61.3	37	34.8	1	5	90	0.00	29.934 
16:50	61.3	61.3	61.3	37	34.8	2	4	248	0.00	29.934 
16:55	61.5	61.5	61.5	36	34.3	1	7	248	0.00	29.934 
17:00	61.5	61.5	61.5	37	35.0	1	6	270	0.00	29.931 
17:05	61.2	61.2	61.2	39	36.0	1	5	270	0.00	29.931 
17:10	61.0	61.0	61.0	39	35.9	0	3	270	0.00	29.931 
17:15	60.7	60.7	60.7	39	35.6	0	3	248	0.00	29.928 
17:20	60.7	60.7	60.7	40	36.2	0	3	248	0.00	29.928 
17:25	60.7	60.7	60.7	39	35.6	1	5	270	0.00	29.928 
17:30	60.5	60.5	60.5	40	36.1	0	2	248	0.00	29.926 
17:35	60.5	60.5	60.5	40	36.1	0	3	225	0.00	29.926 
17:40	60.4	60.4	60.4	40	36.0	1	4	292	0.00	29.926 
17:45	60.1	60.1	60.1	40	35.7	1	6	248	0.00	29.922 
17:50	59.9	59.9	59.9	42	36.8	1	6	248	0.00	29.922 
17:55	59.8	59.8	59.8	41	36.1	0	3	248	0.00	29.922 
18:00	59.6	59.6	59.6	41	35.9	1	5	68	0.00	29.919 
18:05	59.6	59.6	59.6	42	36.5	0	2	270	0.00	29.919 
18:10	59.5	59.5	59.5	43	37.0	0	2	270	0.00	29.919 
18:15	59.2	59.2	59.2	43	36.7	0	3	225	0.00	29.918 
18:20	59.0	59.0	59.0	43	36.5	1	3	292	0.00	29.918 
18:25	58.9	58.9	58.9	43	36.4	1	3	292	0.00	29.918 
18:30	58.9	58.9	58.9	43	36.4	1	4	248	0.00	29.921 
18:35	58.7	58.7	58.7	43	36.3	0	1	248	0.00	29.921 
18:40	58.6	58.6	58.6	44	36.8	0	1	248	0.00	29.921 
18:45	58.4	58.4	58.4	44	36.6	0	1	248	0.00	29.921 
18:50	58.1	58.1	58.1	45	36.9	0	1	248	0.00	29.921 
18:55	57.8	57.8	57.8	45	36.6	0	1	248	0.00	29.921 
19:00	57.5	57.5	57.5	45	36.3	0	2	248	0.00	29.927 
19:05	57.3	57.3	57.3	46	36.7	0	1	248	0.00	29.927 
19:10	57.2	57.2	57.2	46	36.6	0	2	248	0.00	29.927 
19:15	56.9	56.9	56.9	46	36.3	0	1	248	0.00	29.931 
19:20	56.7	56.7	56.7	46	36.2	0	1	248	0.00	29.931 
19:25	56.5	56.5	56.5	47	36.5	0	1	248	0.00	29.931 
19:30	56.2	56.2	56.2	47	36.2	0	1	248	0.00	29.932 
19:35	56.0	56.0	56.0	48	36.6	0	1	248	0.00	29.932 
19:40	55.7	55.7	55.7	49	36.8	0	0	---	0.00	29.932 
19:45	55.4	55.4	55.4	50	37.1	0	0	---	0.00	29.932 
19:50	55.0	55.0	55.0	50	36.7	0	0	---	0.00	29.932 
19:55	54.7	54.7	54.7	51	36.9	0	0	---	0.00	29.932 
20:00	54.4	54.4	54.4	51	36.7	0	0	---	0.00	29.933 
20:05	53.9	53.9	53.9	53	37.2	0	0	---	0.00	29.933 
20:10	53.5	53.5	53.5	53	36.8	0	0	---	0.00	29.933 
20:15	53.2	53.2	53.2	54	37.0	0	0	---	0.00	29.932 
20:20	52.8	52.8	52.8	54	36.6	0	0	---	0.00	29.932 
20:25	52.5	52.5	52.5	55	36.8	0	0	---	0.00	29.932 
20:30	52.2	52.2	52.2	56	37.0	0	0	---	0.00	29.931 
20:35	51.9	51.9	51.9	57	37.1	0	0	---	0.00	29.931 
20:40	51.6	51.6	51.6	58	37.3	0	0	---	0.00	29.931 
20:45	51.6	51.6	51.6	58	37.3	0	1	248	0.00	29.923 
20:50	51.4	51.4	51.4	59	37.6	0	0	---	0.00	29.923 
20:55	51.4	51.4	51.4	59	37.6	0	1	248	0.00	29.923 
21:00	51.4	51.4	51.4	59	37.6	0	0	---	0.00	29.920 
21:05	51.3	51.3	51.3	60	37.9	0	0	---	0.00	29.920 
21:10	51.3	51.3	51.3	61	38.3	0	1	248	0.00	29.920 
21:15	51.1	51.1	51.1	61	38.1	0	1	248	0.00	29.913 
21:20	51.0	51.0	51.0	61	38.0	0	0	---	0.00	29.913 
21:25	50.8	50.8	50.8	62	38.3	0	0	---	0.00	29.913 
21:30	50.7	50.7	50.7	62	38.2	0	0	---	0.00	29.913 
21:35	50.4	50.4	50.4	63	38.3	0	0	---	0.00	29.913 
21:40	50.2	50.2	50.2	63	38.1	0	0	---	0.00	29.913 
21:45	50.1	50.1	50.1	64	38.4	0	0	---	0.00	29.911 
21:50	49.9	49.9	49.9	64	38.2	0	0	---	0.00	29.911 
21:55	49.8	49.8	49.8	65	38.5	0	0	---	0.00	29.911 
22:00	49.6	49.6	49.6	65	38.3	0	0	---	0.00	29.909 
22:05	49.5	49.5	49.5	66	38.6	0	0	---	0.00	29.909 
22:10	49.4	49.4	49.4	66	38.5	0	0	---	0.00	29.909 
22:15	49.4	49.4	49.4	66	38.5	0	0	---	0.00	29.904 
22:20	49.5	49.5	49.5	66	38.6	0	1	248	0.00	29.904 
22:25	49.5	49.5	49.5	66	38.6	0	0	---	0.00	29.904 
22:30	49.5	49.5	49.5	67	39.0	0	0	---	0.00	29.907 
22:35	49.5	49.5	49.5	66	38.6	0	0	---	0.00	29.907 
22:40	49.5	49.5	49.5	66	38.6	0	0	---	0.00	29.907 
22:45	49.5	49.5	49.5	66	38.6	0	0	---	0.00	29.900 
22:50	49.5	49.5	49.5	66	38.6	0	1	248	0.00	29.900 
22:55	49.4	49.4	49.4	67	38.9	0	0	---	0.00	29.900 
23:00	49.2	49.2	49.2	67	38.7	0	0	---	0.00	29.897 
23:05	49.2	49.2	49.2	67	38.7	0	0	---	0.00	29.897 
23:10	49.1	49.1	49.1	67	38.6	0	0	---	0.00	29.897 
23:15	49.1	49.1	49.1	68	39.0	0	1	248	0.00	29.891 
23:20	49.1	49.1	49.1	68	39.0	0	1	248	0.00	29.891 
23:25	49.1	49.1	49.1	68	39.0	0	0	---	0.00	29.891 
23:30	49.1	49.1	49.1	68	39.0	0	0	---	0.00	29.890 
23:35	49.1	49.1	49.1	68	39.0	0	1	248	0.00	29.890 
23:40	49.1	49.1	49.1	68	39.0	0	1	248	0.00	29.890 
23:45	49.1	49.1	49.1	68	39.0	0	1	248	0.00	29.885 
23:50	49.1	49.1	49.1	68	39.0	0	1	248	0.00	29.885 
23:55	49.2	49.2	49.2	68	39.1	0	1	248	0.00	29.885 

CoCoRaHS
IN-AL-39
A2 Web Hosting
Creative Commons License
GoDaddy
search engine by freefind advanced

loaded 2018-11-20 14:23:55 • last modified 2010-11-18 10:43:29
Privacy PolicyDisclaimer
• wx.awcolley.com is powered by PmWiki v.2002016 •
• all content (unless otherwise noted) © 2018 A W Colley